createdAt,value
2024-03-06T00:00:19.567Z,5.32
2024-03-06T00:02:49.323Z,5.28
2024-03-06T00:05:17.463Z,5.24
2024-03-06T00:07:45.328Z,5.22
2024-03-06T00:10:13.148Z,5.19
2024-03-06T00:12:41.229Z,5.16
2024-03-06T00:15:09.526Z,5.16
2024-03-06T00:17:37.422Z,5.14
2024-03-06T00:20:07.032Z,5.11
2024-03-06T00:22:35.116Z,5.11
2024-03-06T00:25:03.536Z,5.11
2024-03-06T00:27:31.703Z,5.11
2024-03-06T00:29:59.599Z,5.08
2024-03-06T00:32:29.338Z,5.07
2024-03-06T00:34:57.340Z,5.05
2024-03-06T00:37:25.404Z,5.02
2024-03-06T00:39:53.226Z,5.01
2024-03-06T00:42:21.170Z,5.00
2024-03-06T00:44:49.083Z,4.99
2024-03-06T00:47:16.886Z,4.99
2024-03-06T00:49:44.808Z,4.96
2024-03-06T00:52:13.203Z,4.95
2024-03-06T00:54:41.449Z,4.92
2024-03-06T00:57:10.354Z,4.86
2024-03-06T00:59:38.126Z,4.79
2024-03-06T01:02:06.766Z,4.69
2024-03-06T01:04:34.641Z,4.58
2024-03-06T01:07:02.485Z,4.47
2024-03-06T01:09:30.385Z,4.40
2024-03-06T01:11:58.247Z,4.34
2024-03-06T01:14:26.262Z,4.30
2024-03-06T01:16:54.237Z,4.27
2024-03-06T01:19:22.188Z,4.25
2024-03-06T01:21:50.069Z,4.25
2024-03-06T01:24:18.515Z,4.23
2024-03-06T01:26:46.464Z,4.21
2024-03-06T01:29:14.384Z,4.16
2024-03-06T01:31:42.283Z,4.12
2024-03-06T01:34:10.170Z,4.10
2024-03-06T01:36:38.009Z,4.06
2024-03-06T01:39:05.845Z,4.04
2024-03-06T01:41:33.704Z,4.02
2024-03-06T01:44:02.499Z,4.00
2024-03-06T01:46:30.740Z,3.99
2024-03-06T01:49:01.146Z,3.97
2024-03-06T01:51:29.164Z,3.94
2024-03-06T01:53:58.226Z,3.89
2024-03-06T01:56:27.682Z,3.86
2024-03-06T01:58:57.250Z,3.81
2024-03-06T02:01:27.076Z,3.77
2024-03-06T02:03:55.763Z,3.74
2024-03-06T02:06:23.847Z,3.72
2024-03-06T02:08:52.058Z,3.69
2024-03-06T02:11:19.896Z,3.65
2024-03-06T02:13:47.872Z,3.59
2024-03-06T02:16:16.036Z,3.53
2024-03-06T02:18:54.159Z,3.48
2024-03-06T02:21:23.869Z,3.44
2024-03-06T02:23:52.793Z,3.40
2024-03-06T02:26:21.681Z,3.38
2024-03-06T02:28:55.070Z,3.34
2024-03-06T02:31:23.576Z,3.34
2024-03-06T02:33:51.487Z,3.33
2024-03-06T02:36:20.098Z,3.33
2024-03-06T02:38:48.121Z,3.33
2024-03-06T02:41:16.738Z,3.32
2024-03-06T02:43:44.606Z,3.33
2024-03-06T02:46:12.398Z,3.36
2024-03-06T02:48:40.344Z,3.38
2024-03-06T02:51:08.252Z,3.39
2024-03-06T02:53:36.122Z,3.38
2024-03-06T02:56:04.600Z,3.34
2024-03-06T02:58:32.390Z,3.35
2024-03-06T03:01:00.290Z,3.34
2024-03-06T03:03:28.486Z,3.34
2024-03-06T03:05:56.539Z,3.32
2024-03-06T03:08:24.462Z,3.28
2024-03-06T03:10:52.300Z,3.21
2024-03-06T03:13:20.095Z,3.15
2024-03-06T03:15:48.770Z,3.14
2024-03-06T03:18:16.732Z,3.11
2024-03-06T03:20:44.737Z,3.10
2024-03-06T03:23:14.618Z,3.10
2024-03-06T03:25:44.391Z,3.14
2024-03-06T03:28:12.276Z,3.14
2024-03-06T03:30:40.292Z,3.15
2024-03-06T03:33:08.550Z,3.15
2024-03-06T03:35:36.401Z,3.11
2024-03-06T03:38:04.745Z,3.12
2024-03-06T03:40:33.579Z,3.09
2024-03-06T03:43:03.774Z,3.06
2024-03-06T03:45:31.644Z,3.05
2024-03-06T03:47:59.740Z,3.02
2024-03-06T03:50:27.674Z,3.01
2024-03-06T03:52:55.999Z,2.99
2024-03-06T03:55:24.819Z,2.98
2024-03-06T03:57:52.787Z,2.98
2024-03-06T04:00:23.100Z,2.97
2024-03-06T04:02:51.049Z,2.98
2024-03-06T04:05:19.343Z,2.98
2024-03-06T04:07:47.426Z,2.98
2024-03-06T04:10:15.556Z,2.99
2024-03-06T04:12:43.402Z,2.99
2024-03-06T04:15:11.334Z,3.01
2024-03-06T04:17:40.969Z,3.01
2024-03-06T04:20:11.552Z,3.03
2024-03-06T04:22:42.606Z,3.04
2024-03-06T04:25:10.458Z,3.05
2024-03-06T04:27:38.433Z,3.06
2024-03-06T04:30:08.290Z,3.05
2024-03-06T04:32:36.184Z,3.06
2024-03-06T04:35:04.761Z,3.07
2024-03-06T04:37:34.121Z,3.05
2024-03-06T04:40:03.505Z,3.04
2024-03-06T04:42:31.337Z,3.00
2024-03-06T04:44:59.228Z,2.97
2024-03-06T04:47:30.304Z,2.96
2024-03-06T04:49:58.333Z,2.92
2024-03-06T04:52:26.488Z,2.87
2024-03-06T04:54:54.814Z,2.83
2024-03-06T04:57:22.839Z,2.79
2024-03-06T04:59:50.923Z,2.76
2024-03-06T05:02:19.177Z,2.75
2024-03-06T06:00:15.523Z,4.94
2024-03-06T06:02:45.487Z,5.01
2024-03-06T06:05:22.928Z,5.06
2024-03-06T06:07:44.427Z,5.09
2024-03-06T06:10:12.420Z,5.13
2024-03-06T06:12:40.296Z,5.18
2024-03-06T06:15:09.247Z,5.21
2024-03-06T06:17:38.611Z,5.25
2024-03-06T06:20:13.877Z,5.28
2024-03-06T06:22:42.741Z,5.28
2024-03-06T06:25:10.630Z,5.30
2024-03-06T06:27:38.744Z,5.33
2024-03-06T06:30:09.605Z,5.38
2024-03-06T06:32:37.649Z,5.45
2024-03-06T06:35:06.643Z,5.52
2024-03-06T06:37:34.728Z,5.56
2024-03-06T06:40:05.762Z,5.64
2024-03-06T06:42:39.139Z,5.74
2024-03-06T06:45:08.408Z,5.85
2024-03-06T06:47:36.441Z,5.97
2024-03-06T06:50:05.887Z,6.09
2024-03-06T06:52:34.201Z,6.22
2024-03-06T06:55:02.909Z,6.37
2024-03-06T06:57:33.472Z,6.53
2024-03-06T07:00:05.047Z,6.72
2024-03-06T07:02:33.098Z,6.89
2024-03-06T07:05:01.054Z,7.06
2024-03-06T07:07:28.991Z,7.20
2024-03-06T07:09:57.082Z,7.37
2024-03-06T07:12:25.624Z,7.50
2024-03-06T07:14:54.293Z,7.71
2024-03-06T07:17:22.358Z,7.93
2024-03-06T07:19:51.017Z,8.20
2024-03-06T07:22:19.417Z,8.70
2024-03-06T07:24:47.447Z,9.31
2024-03-06T07:27:15.379Z,9.88
2024-03-06T07:29:43.451Z,10.36
2024-03-06T07:32:11.501Z,10.77
2024-03-06T07:34:39.538Z,11.09
2024-03-06T07:37:07.477Z,11.38
2024-03-06T07:39:35.908Z,11.70
2024-03-06T07:42:05.003Z,11.92
2024-03-06T07:44:33.149Z,12.25
2024-03-06T07:47:01.151Z,12.54
2024-03-06T07:49:29.099Z,12.73
2024-03-06T07:51:57.627Z,12.99
2024-03-06T07:54:25.366Z,13.15
2024-03-06T07:56:54.476Z,13.00
2024-03-06T07:59:22.390Z,13.14
2024-03-06T08:01:50.187Z,13.35
2024-03-06T08:04:17.988Z,13.30
2024-03-06T08:06:47.030Z,13.30
2024-03-06T08:09:16.832Z,13.54
2024-03-06T08:11:44.694Z,13.87
2024-03-06T08:14:14.487Z,14.20
2024-03-06T08:16:42.950Z,14.59
2024-03-06T08:19:10.764Z,14.87
2024-03-06T08:21:39.656Z,15.14
2024-03-06T08:24:07.584Z,15.32
2024-03-06T08:26:35.700Z,15.55
2024-03-06T08:29:03.712Z,15.72
2024-03-06T08:31:31.793Z,15.84
2024-03-06T08:33:59.719Z,15.93
2024-03-06T08:36:27.879Z,15.95
2024-03-06T08:38:55.868Z,15.97
2024-03-06T08:41:23.897Z,15.98
2024-03-06T08:43:51.827Z,16.04
2024-03-06T08:46:19.647Z,16.08
2024-03-06T08:48:47.494Z,16.25
2024-03-06T08:51:15.595Z,16.37
2024-03-06T08:53:43.739Z,16.25
2024-03-06T08:56:11.718Z,16.37
2024-03-06T08:58:39.566Z,16.59
2024-03-06T09:01:07.456Z,16.75
2024-03-06T09:03:36.240Z,16.91
2024-03-06T09:06:04.578Z,16.85
2024-03-06T09:08:32.590Z,16.81
2024-03-06T09:11:00.566Z,16.82
2024-03-06T09:13:28.586Z,16.84
2024-03-06T09:15:56.571Z,16.91
2024-03-06T09:18:24.520Z,17.01
2024-03-06T09:20:53.251Z,17.14
2024-03-06T09:23:21.713Z,17.29
2024-03-06T09:25:50.033Z,17.38
2024-03-06T09:28:17.919Z,17.60
2024-03-06T09:30:46.091Z,17.82
2024-03-06T09:33:14.291Z,17.76
2024-03-06T09:35:44.187Z,17.75
2024-03-06T09:38:18.893Z,17.93
2024-03-06T09:40:47.000Z,18.03
2024-03-06T09:43:14.808Z,18.01
2024-03-06T09:45:45.552Z,17.88
2024-03-06T09:48:13.558Z,17.68
2024-03-06T09:50:46.219Z,17.51
2024-03-06T09:53:17.200Z,17.39
2024-03-06T09:55:48.185Z,17.53
2024-03-06T09:58:17.422Z,17.61
2024-03-06T10:00:47.680Z,17.55
2024-03-06T10:03:15.767Z,17.45
2024-03-06T10:05:44.123Z,17.24
2024-03-06T10:08:12.878Z,17.15
2024-03-06T10:10:43.571Z,17.11
2024-03-06T10:13:11.552Z,17.09
2024-03-06T10:15:39.846Z,17.03
2024-03-06T10:18:15.910Z,16.89
2024-03-06T10:20:43.927Z,16.84
2024-03-06T10:23:12.217Z,16.72
2024-03-06T10:25:40.321Z,16.65
2024-03-06T10:28:12.853Z,16.62
2024-03-06T10:30:46.248Z,16.62
2024-03-06T10:33:16.179Z,16.65
2024-03-06T10:35:49.580Z,16.76
2024-03-06T10:38:20.635Z,16.96
2024-03-06T10:40:52.930Z,17.15
2024-03-06T10:43:24.218Z,17.32
2024-03-06T10:46:05.235Z,17.43
2024-03-06T10:48:35.618Z,17.40
2024-03-06T10:51:05.024Z,17.38
2024-03-06T10:53:33.754Z,17.38
2024-03-06T10:56:06.974Z,17.48
2024-03-06T10:58:36.120Z,17.65
2024-03-06T11:01:05.324Z,17.65
2024-03-06T11:03:36.441Z,17.56
2024-03-06T11:06:05.604Z,17.64
2024-03-06T11:08:34.142Z,17.71
2024-03-06T11:11:23.549Z,17.84
2024-03-06T11:13:58.181Z,17.96
2024-03-06T11:16:33.272Z,17.94
2024-03-06T11:19:07.926Z,17.84
2024-03-06T11:21:36.084Z,17.60
2024-03-06T11:24:21.578Z,17.51
2024-03-06T11:27:02.605Z,17.53
2024-03-06T11:30:09.170Z,17.39
2024-03-06T11:32:37.066Z,17.03
2024-03-06T11:35:09.032Z,16.70
2024-03-06T11:37:36.972Z,16.42
2024-03-06T11:40:07.659Z,16.40
2024-03-06T11:42:36.683Z,16.44
2024-03-06T11:45:17.078Z,16.36
2024-03-06T11:48:04.757Z,16.15
2024-03-06T11:50:33.423Z,15.99
2024-03-06T11:53:01.383Z,15.69
2024-03-06T11:55:29.539Z,15.69
2024-03-06T11:57:57.885Z,15.66
2024-03-06T12:00:25.894Z,15.59
2024-03-06T12:02:53.916Z,15.58
2024-03-06T12:05:24.666Z,15.57
2024-03-06T12:07:52.596Z,15.61
2024-03-06T12:10:21.160Z,15.70
2024-03-06T12:12:48.994Z,15.86
2024-03-06T12:15:17.960Z,15.98
2024-03-06T12:17:47.888Z,16.15
2024-03-06T12:20:19.331Z,16.34
2024-03-06T12:22:54.637Z,16.48
2024-03-06T12:25:26.044Z,16.43
2024-03-06T12:27:56.305Z,16.43
2024-03-06T12:30:24.591Z,16.44
2024-03-06T12:33:06.305Z,16.45
2024-03-06T12:35:34.488Z,16.37
2024-03-06T12:38:16.545Z,16.50
2024-03-06T12:40:44.465Z,16.43
2024-03-06T12:43:12.420Z,16.26
2024-03-06T12:45:40.332Z,16.12
2024-03-06T12:48:08.337Z,16.00
2024-03-06T12:50:36.145Z,15.87
2024-03-06T12:53:05.191Z,15.82
2024-03-06T12:55:33.072Z,15.71
2024-03-06T12:58:01.053Z,15.67
2024-03-06T13:00:29.059Z,15.56
2024-03-06T13:02:57.146Z,15.53
2024-03-06T13:05:25.147Z,15.53
2024-03-06T13:07:53.282Z,15.50
2024-03-06T13:10:22.630Z,15.47
2024-03-06T13:12:50.505Z,15.46
2024-03-06T13:15:18.596Z,15.44
2024-03-06T13:17:46.517Z,15.37
2024-03-06T13:20:18.220Z,15.27
2024-03-06T13:22:46.152Z,15.15
2024-03-06T13:25:14.223Z,15.03
2024-03-06T13:27:42.067Z,14.99
2024-03-06T13:30:21.250Z,15.01
2024-03-06T13:33:01.500Z,15.03
2024-03-06T13:35:39.015Z,15.08
2024-03-06T13:38:12.462Z,15.09
2024-03-06T13:40:58.149Z,15.13
2024-03-06T13:43:32.264Z,15.13
2024-03-06T13:46:02.057Z,15.13
2024-03-06T13:48:31.094Z,15.17
2024-03-06T13:50:59.108Z,15.21
2024-03-06T13:53:27.044Z,15.16
2024-03-06T13:55:54.932Z,15.07
2024-03-06T13:58:22.957Z,14.91
2024-03-06T14:00:53.694Z,14.67
2024-03-06T14:03:22.740Z,14.16
2024-03-06T14:05:50.732Z,13.85
2024-03-06T14:08:18.830Z,13.52
2024-03-06T14:10:49.961Z,12.98
2024-03-06T14:13:17.809Z,12.21
2024-03-06T14:15:45.947Z,11.93
2024-03-06T14:18:13.893Z,11.61
2024-03-06T14:20:41.852Z,11.27
2024-03-06T14:23:11.321Z,11.10
2024-03-06T14:25:40.637Z,10.99
2024-03-06T14:28:08.538Z,10.86
2024-03-06T14:30:38.004Z,10.78
2024-03-06T14:33:06.228Z,10.69
2024-03-06T14:35:34.248Z,10.56
2024-03-06T14:38:05.528Z,10.43
2024-03-06T14:40:36.996Z,10.15
2024-03-06T14:43:06.887Z,10.11
2024-03-06T14:45:34.979Z,10.08
2024-03-06T14:48:05.929Z,9.91
2024-03-06T14:50:34.189Z,9.79
2024-03-06T14:53:02.472Z,9.67
2024-03-06T14:55:30.394Z,9.65
2024-03-06T14:57:59.215Z,9.65
2024-03-06T15:00:27.212Z,9.58
2024-03-06T15:02:57.045Z,9.51
2024-03-06T15:05:25.439Z,9.37
2024-03-06T15:07:53.399Z,9.28
2024-03-06T15:10:23.140Z,9.23
2024-03-06T15:12:52.834Z,9.18
2024-03-06T15:15:21.083Z,9.20
2024-03-06T15:17:49.141Z,9.18
2024-03-06T15:20:17.358Z,9.18
2024-03-06T15:22:45.920Z,9.12
2024-03-06T15:25:14.720Z,9.04
2024-03-06T15:27:43.222Z,9.05
2024-03-06T15:30:14.942Z,9.05
2024-03-06T15:32:42.887Z,9.06
2024-03-06T15:35:12.503Z,9.07
2024-03-06T15:37:40.474Z,9.01
2024-03-06T15:40:10.266Z,9.00
2024-03-06T15:42:38.883Z,9.02
2024-03-06T15:45:07.453Z,9.00
2024-03-06T15:47:37.508Z,8.96
2024-03-06T15:50:08.016Z,8.98
2024-03-06T15:52:36.372Z,8.99
2024-03-06T15:55:07.026Z,9.02
2024-03-06T15:57:35.805Z,9.04
2024-03-06T16:00:06.824Z,9.05
2024-03-06T16:02:36.495Z,9.02
2024-03-06T16:05:05.324Z,9.01
2024-03-06T16:07:34.718Z,8.94
2024-03-06T16:10:03.463Z,8.91
2024-03-06T16:12:31.347Z,8.84
2024-03-06T16:15:02.079Z,8.78
2024-03-06T16:17:31.023Z,8.77
2024-03-06T16:19:59.031Z,8.72
2024-03-06T16:22:26.905Z,8.69
2024-03-06T16:24:55.248Z,8.63
2024-03-06T16:27:23.204Z,8.58
2024-03-06T16:29:57.726Z,8.56
2024-03-06T16:32:27.019Z,8.54
2024-03-06T16:34:55.461Z,8.52
2024-03-06T16:37:24.367Z,8.45
2024-03-06T16:39:52.323Z,8.48
2024-03-06T16:42:21.303Z,8.46
2024-03-06T16:44:49.406Z,8.47
2024-03-06T16:47:18.931Z,8.49
2024-03-06T16:49:50.281Z,8.50
2024-03-06T16:52:19.661Z,8.48
2024-03-06T16:54:50.173Z,8.49
2024-03-06T16:57:21.664Z,8.48
2024-03-06T16:59:49.526Z,8.47
2024-03-06T17:02:20.607Z,8.49
2024-03-06T17:04:48.738Z,8.47
2024-03-06T17:07:16.705Z,8.47
2024-03-06T17:09:44.727Z,8.49
2024-03-06T17:12:13.098Z,8.51
2024-03-06T17:14:43.763Z,8.49
2024-03-06T17:17:11.843Z,8.47
2024-03-06T17:19:40.737Z,8.44
2024-03-06T17:22:09.317Z,8.41
2024-03-06T17:24:39.950Z,8.40
2024-03-06T17:27:08.109Z,8.40
2024-03-06T17:29:36.246Z,8.40
2024-03-06T17:32:06.647Z,8.43
2024-03-06T17:34:37.235Z,8.43
2024-03-06T17:37:08.110Z,8.40
2024-03-06T17:39:35.989Z,8.36
2024-03-06T17:42:05.006Z,8.33
2024-03-06T17:44:33.641Z,8.33
2024-03-06T17:47:01.831Z,8.34
2024-03-06T17:49:29.802Z,8.33
2024-03-06T17:51:58.778Z,8.34
2024-03-06T17:54:26.703Z,8.33
2024-03-06T17:56:56.627Z,8.34
2024-03-06T17:59:24.626Z,8.33
2024-03-06T18:01:56.984Z,8.34
2024-03-06T18:04:26.379Z,8.30
2024-03-06T18:06:54.599Z,8.27
2024-03-06T18:09:24.982Z,8.24
2024-03-06T18:11:53.455Z,8.23
2024-03-06T18:14:23.369Z,8.23
2024-03-06T18:16:54.359Z,8.22
2024-03-06T18:19:22.559Z,8.21
2024-03-06T18:21:50.598Z,8.20
2024-03-06T18:24:18.582Z,8.18
2024-03-06T18:26:48.567Z,8.17
2024-03-06T18:29:17.179Z,8.16
2024-03-06T18:31:45.659Z,8.10
2024-03-06T18:34:14.023Z,7.96
2024-03-06T18:36:42.172Z,7.88
2024-03-06T18:39:11.250Z,7.76
2024-03-06T18:41:41.242Z,7.64
2024-03-06T18:44:11.354Z,7.38
2024-03-06T18:46:44.697Z,7.45
2024-03-06T18:49:14.991Z,7.37
2024-03-06T18:51:49.241Z,7.34
2024-03-06T18:54:17.692Z,7.27
2024-03-06T18:56:47.971Z,7.31
2024-03-06T18:59:17.111Z,7.28
2024-03-06T19:01:50.424Z,7.31
2024-03-06T19:04:21.994Z,7.31
2024-03-06T19:06:50.009Z,7.33
2024-03-06T19:09:19.577Z,7.35
2024-03-06T19:11:49.403Z,7.30
2024-03-06T19:14:17.566Z,7.24
2024-03-06T19:16:47.887Z,7.20
2024-03-06T19:19:17.938Z,7.13
2024-03-06T19:21:46.279Z,7.11
2024-03-06T19:24:14.310Z,7.07
2024-03-06T19:26:42.264Z,7.01
2024-03-06T19:29:10.811Z,6.89
2024-03-06T19:31:40.039Z,6.79
2024-03-06T19:34:10.025Z,6.63
2024-03-06T19:36:37.942Z,6.58
2024-03-06T19:39:08.733Z,6.52
2024-03-06T19:41:38.896Z,6.47
2024-03-06T19:44:10.151Z,6.41
2024-03-06T19:46:39.247Z,6.34
2024-03-06T19:49:07.700Z,6.33
2024-03-06T19:51:35.651Z,6.32
2024-03-06T19:54:04.549Z,6.28
2024-03-06T19:56:32.578Z,6.30
2024-03-06T19:59:00.543Z,6.30
2024-03-06T20:01:28.673Z,6.28
2024-03-06T20:03:57.760Z,6.21
2024-03-06T20:06:27.226Z,6.14
2024-03-06T20:08:55.533Z,6.09
2024-03-06T20:11:25.246Z,6.01
2024-03-06T20:13:53.550Z,5.94
2024-03-06T20:16:21.595Z,5.86
2024-03-06T20:18:49.530Z,5.83
2024-03-06T20:21:17.498Z,5.78
2024-03-06T20:23:49.055Z,5.74
2024-03-06T20:26:18.509Z,5.70
2024-03-06T20:28:51.006Z,5.70
2024-03-06T20:31:20.721Z,5.65
2024-03-06T20:33:50.608Z,5.65
2024-03-06T20:36:20.331Z,5.64
2024-03-06T20:38:48.259Z,5.60
2024-03-06T20:41:16.616Z,5.60
2024-03-06T20:43:44.547Z,5.56
2024-03-06T20:46:12.956Z,5.56
2024-03-06T20:48:47.076Z,5.50
2024-03-06T20:51:15.385Z,5.50
2024-03-06T20:53:43.606Z,5.47
2024-03-06T20:56:11.679Z,5.46
2024-03-06T20:58:40.016Z,5.46
2024-03-06T21:01:11.574Z,5.47
2024-03-06T21:03:40.152Z,5.46
2024-03-06T21:06:08.606Z,5.45
2024-03-06T21:08:36.516Z,5.41
2024-03-06T21:11:07.335Z,5.38
2024-03-06T21:13:43.657Z,5.35
2024-03-06T21:16:13.044Z,5.31
2024-03-06T21:18:42.975Z,5.24
2024-03-06T21:21:11.146Z,5.20
2024-03-06T21:23:39.517Z,5.18
2024-03-06T21:26:09.618Z,5.16
2024-03-06T21:28:37.611Z,5.14
2024-03-06T21:31:05.602Z,5.19
2024-03-06T21:33:34.009Z,5.21
2024-03-06T21:36:02.060Z,5.19
2024-03-06T21:38:30.018Z,5.18
2024-03-06T21:40:58.144Z,5.16
2024-03-06T21:43:25.957Z,5.12
2024-03-06T21:45:54.007Z,5.11
2024-03-06T21:48:21.896Z,5.11
2024-03-06T21:50:51.694Z,5.13
2024-03-06T21:53:21.500Z,5.12
2024-03-06T21:55:49.698Z,5.13
2024-03-06T21:58:20.541Z,5.16
2024-03-06T22:00:47.798Z,5.19
2024-03-06T22:03:15.725Z,5.22
2024-03-06T22:05:43.879Z,5.22
2024-03-06T22:08:11.946Z,5.21
2024-03-06T22:10:40.119Z,5.20
2024-03-06T22:13:07.979Z,5.13
2024-03-06T22:15:37.869Z,5.07
2024-03-06T22:18:06.292Z,5.01
2024-03-06T22:20:34.290Z,4.97
2024-03-06T22:23:02.358Z,4.92
2024-03-06T22:25:30.716Z,4.89
2024-03-06T22:28:00.197Z,4.88
2024-03-06T22:30:28.241Z,4.88
2024-03-06T22:32:57.323Z,4.87
2024-03-06T22:35:25.246Z,4.83
2024-03-06T22:37:53.308Z,4.79
2024-03-06T22:40:21.865Z,4.73
2024-03-06T22:42:49.763Z,4.68
2024-03-06T22:45:17.788Z,4.67
2024-03-06T22:47:46.255Z,4.64
2024-03-06T22:50:14.694Z,4.63
2024-03-06T22:52:42.933Z,4.63
2024-03-06T22:55:10.884Z,4.62
2024-03-06T22:57:39.873Z,4.60
2024-03-06T23:00:11.592Z,4.62
2024-03-06T23:02:39.552Z,4.65
2024-03-06T23:05:09.859Z,4.64
2024-03-06T23:07:37.554Z,4.64
2024-03-06T23:10:06.302Z,4.66
2024-03-06T23:12:34.156Z,4.71
2024-03-06T23:15:02.274Z,4.75
2024-03-06T23:17:31.801Z,4.79
2024-03-06T23:20:01.583Z,4.83
2024-03-06T23:22:29.423Z,4.85
2024-03-06T23:24:57.856Z,4.86
2024-03-06T23:27:28.526Z,4.89
2024-03-06T23:29:56.402Z,4.92
2024-03-06T23:32:24.423Z,4.92
2024-03-06T23:34:52.460Z,4.86
2024-03-06T23:37:20.363Z,4.82
2024-03-06T23:39:48.312Z,4.77
2024-03-06T23:42:16.632Z,4.72
2024-03-06T23:44:44.696Z,4.70
2024-03-06T23:47:13.861Z,4.68
2024-03-06T23:49:41.813Z,4.66
2024-03-06T23:52:10.562Z,4.65
2024-03-06T23:54:39.170Z,4.64
2024-03-06T23:57:07.036Z,4.62
2024-03-06T23:59:35.133Z,4.60
